Leszno Strzyzewice, Poland

10:10 AM CEST on August 21, 2014 (GMT +0200)
IGRONOWO2 | Change Station
CLOSE
Current Station
Personal Weather Station
Location: Leszno, GRONOWO
Elevation: 314 ft
Nearby Weather Stations

Elev 314 ft 51.87 °N, 16.58 °E | Updated 3 minutes ago

Clear
Clear
65.1 °F
Feels Like 65.1 °F
N
0.0
Wind Variable Wind from WSW
Gusts 1.1 mph

Today
High -- | Low -- °F
--% Chance of Precip.
Yesterday
High -- | Low -- °F
Precip. -- in
5:47 AM 8:05 PM
Waning Crescent, 16% visible
Pressure 30.01 in
Visibility -9999.0 miles
Clouds
Dew Point 49 °F
Humidity 57%
Rainfall 0.00 in
Snow Depth Not available.
UV Not available.
Pollen Not available.
Air Quality Not available.
Flu Activity Not available.
METAR EPZG 210800Z 00000KT CAVOK 17/09 Q1016

More Conditions Fewer Conditions

Pressure 30.01 in
Visibility -9999.0 miles
Clouds
Dew Point 49 °F
Humidity 57%
Rainfall 0.00 in
Snow Depth Not available.
UV Not available.
Pollen Not available.
Air Quality Not available.
Flu Activity Not available.
METAR EPZG 210800Z 00000KT CAVOK 17/09 Q1016

More Conditions Fewer Conditions

10-Day Weather Forecast

Almanac

Astronomy

Aug. 21, 2014 Rise Set
Actual Time 5:47 AM CEST 8:05 PM CEST
Civil Twilight 5:10 AM CEST 8:41 PM CEST
Nautical Twilight 4:24 AM CEST 9:28 PM CEST
Astronomical Twilight 3:29 AM CEST 10:21 PM CEST
Moon 1:50 AM CEST 5:32 PM CEST
Length of Visible Light 15h 31m
Length of Day
14h 17m
Tomorrow will be 3m 44s shorter.
Waning Crescent, 16% of the Moon is Illuminated
Today
Waning Crescent
Aug 25
New
Sep 2
First Quarter
Sep 8
Full
Sep 15
Last Quarter

Yesterday's Extremes

Country Highs Country Lows

Community

WunderPhotos

Upload Photos

1,745,867 photos uploaded!

Nearby

Snow Depth

Not available.

Earthquake Activity

City Distance Mag. Time & Date
No recent earthquake activity has been reported nearby.
Minimum magnitude displayed is 2.5.

Coastal Water Temperatures

Place Temperature
No Stations Reporting

Nearby Weather Stations